Pagrindinis puslapis
METAR-TAF:

METAR-TAF

Oro uostai :

Buckland, Aliaska, Jungtinės Amerikos Valstijos

platuma: 65-58-56N, ilguma: 161-09-07W, Aukštis: 7 m

Dabartinis oras

Ataskaita buvo paskelbta 1 valandą ir 1 minutes, ne 19:56 UTC
Vėjas 9 kt iš Šiaurės Rytų
Temperatūra 7°C
Drėgmė 66%
Slėgis 1006 hPa
Matomumas: 16.1 km
Giedras dangus

METAR: PABL 301956Z AUTO 05009KT 10SM CLR 07/01 A2971 RMK AO2 SLP062 T00670011

Laikas: 12:57 (20:57 UTC)


TAF: trūkstamas

Orai ataskaitas ir orų prognozės (METAR, TAF).

turimą stotys yra geltonos ir raudonos taškus žemėlapyje.

Perkelti pele per norėdami pamatyti stoties vardą.

Tada spustelėkite, norėdami matyti oro stebėjimo ir prognozės.

Norėdami pakeisti žemėlapį: spustelėkite ant žalios mygtukų su juodo kryžiaus žemyn,; žalią mygtuką su brūkšneliu, jei norite nutolinti; arba žalių rodyklių gretimoms žemėlapius.


METAR-TAF: